Time;durP1;ratioP1;P1;durP2;ratioP2;P2;SDS_P1;SDS_P2;PMS_P1;PMS_P2;Temp;Humidity;BMP_temperature;BMP_pressure;BME280_temperature;BME280_humidity;BME280_pressure;Samples;Min_cycle;Max_cycle;Signal;HPM_P1;HPM_P2
2021/12/07 00:00:22;;;;;;;12.13;6.82;;;3.70;99.90;;;;;;5129971;28;20059;-67
2021/12/07 00:02:48;;;;;;;10.18;6.53;;;3.70;99.90;;;;;;5096029;28;20044;-68
2021/12/07 00:05:13;;;;;;;10.38;6.85;;;3.60;99.90;;;;;;5130358;28;20360;-67
2021/12/07 00:07:42;;;;;;;11.50;7.35;;;3.60;99.90;;;;;;5112936;28;20449;-67
2021/12/07 00:10:08;;;;;;;12.50;7.82;;;3.50;99.90;;;;;;5113266;28;20053;-67
2021/12/07 00:12:38;;;;;;;14.43;7.78;;;3.40;99.90;;;;;;5126984;27;20069;-68
2021/12/07 00:15:06;;;;;;;11.50;6.75;;;3.40;99.90;;;;;;5117461;28;20027;-68
2021/12/07 00:17:32;;;;;;;9.00;5.70;;;3.30;99.90;;;;;;5117449;28;20020;-68
2021/12/07 00:19:59;;;;;;;12.07;7.00;;;3.10;99.90;;;;;;5098713;28;20114;-68
2021/12/07 00:22:26;;;;;;;11.75;6.60;;;3.00;99.90;;;;;;5098596;28;20469;-68
2021/12/07 00:24:51;;;;;;;9.40;6.43;;;3.00;99.90;;;;;;5116149;28;20044;-68
2021/12/07 00:27:17;;;;;;;13.07;7.00;;;3.00;99.90;;;;;;5117007;28;20476;-68
2021/12/07 00:29:44;;;;;;;8.63;5.97;;;2.90;99.90;;;;;;5115477;28;20084;-68
2021/12/07 00:32:22;;;;;;;14.30;7.72;;;2.90;99.90;;;;;;5098856;28;20027;-68
2021/12/07 00:35:14;;;;;;;11.50;7.45;;;3.00;99.90;;;;;;5116847;28;20399;-68
2021/12/07 00:37:35;;;;;;;11.48;7.03;;;3.00;99.90;;;;;;5101290;28;20024;-68
2021/12/07 00:40:04;;;;;;;12.23;7.32;;;2.90;99.90;;;;;;5116723;28;20027;-68
2021/12/07 00:42:30;;;;;;;11.77;7.35;;;2.90;99.90;;;;;;5116879;28;20027;-68
2021/12/07 00:44:55;;;;;;;11.57;6.90;;;2.90;99.90;;;;;;5098155;28;20111;-68
2021/12/07 00:47:21;;;;;;;13.02;7.38;;;2.90;99.90;;;;;;5116589;27;20016;-68
2021/12/07 00:49:47;;;;;;;13.68;8.43;;;2.90;99.90;;;;;;5116230;28;20024;-68
2021/12/07 00:52:12;;;;;;;17.20;9.02;;;2.90;99.90;;;;;;5081137;28;20545;-68
2021/12/07 00:54:39;;;;;;;13.75;8.65;;;2.90;99.90;;;;;;5115328;28;20031;-68
2021/12/07 00:57:05;;;;;;;13.90;8.20;;;2.90;99.90;;;;;;5115036;28;20373;-68
2021/12/07 00:59:32;;;;;;;13.52;8.02;;;2.90;99.90;;;;;;5114805;28;20039;-68
2021/12/07 01:01:58;;;;;;;13.43;9.02;;;2.90;99.90;;;;;;5115118;28;20023;-68
2021/12/07 01:04:26;;;;;;;13.55;8.07;;;2.90;99.90;;;;;;5098178;28;20096;-68
2021/12/07 01:26:03;;;;;;;14.25;8.93;;;2.90;99.90;;;;;;5070485;28;20029;-68
2021/12/07 01:28:38;;;;;;;16.70;8.35;;;2.90;99.90;;;;;;5052959;28;20020;-68
2021/12/07 01:31:19;;;;;;;12.48;7.90;;;2.90;99.90;;;;;;5069964;28;20024;-68
2021/12/07 01:34:05;;;;;;;12.63;8.43;;;2.90;99.90;;;;;;5054706;28;20082;-68
2021/12/07 01:42:55;;;;;;;11.23;7.88;;;2.90;99.90;;;;;;5070161;28;20020;-68
2021/12/07 01:50:33;;;;;;;12.02;8.10;;;2.90;99.90;;;;;;5068984;28;20110;-68
2021/12/07 01:53:14;;;;;;;15.07;8.15;;;2.90;99.90;;;;;;5068828;28;20032;-68
2021/12/07 02:01:11;;;;;;;14.73;8.05;;;3.00;99.90;;;;;;5069141;28;20465;-68
2021/12/07 02:03:38;;;;;;;12.38;7.53;;;3.00;99.90;;;;;;5070452;28;20412;-68
2021/12/07 02:06:05;;;;;;;10.15;7.15;;;3.00;99.90;;;;;;5069799;28;20504;-68
2021/12/07 02:08:31;;;;;;;9.88;6.68;;;3.00;99.90;;;;;;5052074;28;20024;-68
2021/12/07 02:11:00;;;;;;;11.73;7.50;;;2.90;99.90;;;;;;5051675;28;20055;-68
2021/12/07 02:16:10;;;;;;;11.57;7.47;;;2.90;99.90;;;;;;5112286;27;20355;-68
2021/12/07 02:18:36;;;;;;;12.43;7.57;;;3.00;99.90;;;;;;5110833;28;20047;-68
2021/12/07 02:21:19;;;;;;;13.85;8.57;;;3.00;99.90;;;;;;5110103;28;20051;-68
2021/12/07 02:23:45;;;;;;;13.23;8.20;;;3.00;99.90;;;;;;5093097;28;20023;-68
2021/12/07 02:26:11;;;;;;;11.05;7.57;;;3.00;99.90;;;;;;5111838;28;20027;-68
2021/12/07 02:28:39;;;;;;;11.98;7.07;;;3.00;99.90;;;;;;5111486;28;20028;-68
2021/12/07 02:31:06;;;;;;;8.75;6.03;;;3.00;99.90;;;;;;5110323;28;20040;-68
2021/12/07 02:33:32;;;;;;;10.45;6.38;;;3.00;99.90;;;;;;5110235;28;20050;-68
2021/12/07 02:35:58;;;;;;;11.50;6.45;;;3.00;99.90;;;;;;5111582;28;20560;-68
2021/12/07 02:38:23;;;;;;;12.38;7.00;;;3.00;99.90;;;;;;5110430;28;20048;-68
2021/12/07 02:40:49;;;;;;;8.80;6.00;;;3.00;99.90;;;;;;5111245;28;20046;-68
2021/12/07 02:43:15;;;;;;;9.68;6.20;;;3.00;99.90;;;;;;5111481;28;20050;-68
2021/12/07 02:45:40;;;;;;;9.27;6.70;;;3.00;99.90;;;;;;5092653;28;20074;-68
2021/12/07 02:48:06;;;;;;;12.75;6.85;;;3.00;99.90;;;;;;5109952;28;20024;-67
2021/12/07 02:50:33;;;;;;;9.73;6.22;;;3.00;99.90;;;;;;5109546;28;20042;-68
2021/12/07 02:52:59;;;;;;;9.43;6.63;;;3.00;99.90;;;;;;5109560;28;20028;-67
2021/12/07 02:55:25;;;;;;;10.27;6.85;;;3.00;99.90;;;;;;5109357;28;20054;-67
2021/12/07 02:57:51;;;;;;;12.25;7.85;;;3.00;99.90;;;;;;5109397;28;20024;-67
2021/12/07 03:00:22;;;;;;;16.40;9.02;;;3.00;99.90;;;;;;5109392;28;20032;-68
2021/12/07 03:02:58;;;;;;;15.65;7.97;;;3.00;99.90;;;;;;5110845;28;20460;-68
2021/12/07 03:05:39;;;;;;;14.10;9.18;;;2.90;99.90;;;;;;5111028;28;20024;-67
2021/12/07 03:08:26;;;;;;;18.42;10.63;;;3.00;99.90;;;;;;5109161;28;20411;-67
2021/12/07 03:27:26;;;;;;;23.60;14.07;;;2.80;99.90;;;;;;5095685;28;20024;-68
2021/12/07 03:29:52;;;;;;;22.38;14.32;;;2.80;99.90;;;;;;5097075;28;20016;-68
2021/12/07 03:32:17;;;;;;;24.67;15.40;;;2.70;99.90;;;;;;5078260;28;20020;-68
2021/12/07 03:34:43;;;;;;;27.27;16.73;;;2.70;99.90;;;;;;5095028;28;20101;-68
2021/12/07 03:37:08;;;;;;;24.05;15.48;;;2.70;99.90;;;;;;5095734;28;20024;-67
2021/12/07 03:39:34;;;;;;;27.55;16.95;;;2.60;99.90;;;;;;5095435;28;20021;-68
2021/12/07 03:42:00;;;;;;;24.55;15.77;;;2.60;99.90;;;;;;5095124;28;20028;-68
2021/12/07 03:44:25;;;;;;;29.23;18.25;;;2.50;99.90;;;;;;5095025;28;20032;-68
2021/12/07 03:46:51;;;;;;;31.65;18.17;;;2.50;99.90;;;;;;5094849;28;20392;-68
2021/12/07 03:49:16;;;;;;;27.70;16.67;;;2.50;99.90;;;;;;5094849;28;20035;-68
2021/12/07 03:51:42;;;;;;;28.50;17.20;;;2.50;99.90;;;;;;5095185;28;20027;-68
2021/12/07 03:54:08;;;;;;;31.17;18.60;;;2.40;99.90;;;;;;5094738;28;20055;-67
2021/12/07 03:56:34;;;;;;;30.98;18.63;;;2.50;99.90;;;;;;5078525;28;20024;-67
2021/12/07 03:58:59;;;;;;;31.10;19.25;;;2.40;99.90;;;;;;5095097;28;20021;-68
2021/12/07 04:01:25;;;;;;;34.13;19.73;;;2.40;99.90;;;;;;5096145;28;20024;-68
2021/12/07 04:03:52;;;;;;;33.72;19.92;;;2.40;99.90;;;;;;5094597;28;20030;-68
2021/12/07 04:06:19;;;;;;;35.15;19.73;;;2.40;99.90;;;;;;5094541;28;20020;-68
2021/12/07 04:08:45;;;;;;;34.67;19.58;;;2.40;99.90;;;;;;5077848;28;20111;-67
2021/12/07 04:11:11;;;;;;;36.63;20.33;;;2.30;99.90;;;;;;5095709;28;20448;-68
2021/12/07 04:13:40;;;;;;;36.30;19.60;;;2.40;99.90;;;;;;5094786;28;20492;-68
2021/12/07 04:16:07;;;;;;;35.80;19.95;;;2.40;99.90;;;;;;5077736;28;20432;-67
2021/12/07 04:18:33;;;;;;;35.45;19.80;;;2.30;99.90;;;;;;5096104;28;20016;-68
2021/12/07 04:21:01;;;;;;;34.88;20.20;;;2.40;99.90;;;;;;5095526;28;20548;-67
2021/12/07 04:23:27;;;;;;;37.20;21.73;;;2.40;99.90;;;;;;5094862;28;20103;-68
2021/12/07 04:25:53;;;;;;;40.22;21.80;;;2.30;99.90;;;;;;5094789;28;20020;-67
2021/12/07 04:28:18;;;;;;;44.83;23.90;;;2.40;99.90;;;;;;5094084;28;20089;-67
2021/12/07 04:30:44;;;;;;;48.28;23.50;;;2.30;99.90;;;;;;5094073;28;20393;-67
2021/12/07 04:33:12;;;;;;;46.97;25.95;;;2.40;99.90;;;;;;5095778;28;20024;-68
2021/12/07 04:35:40;;;;;;;49.25;25.73;;;2.40;99.90;;;;;;5095693;28;20075;-68
2021/12/07 04:38:06;;;;;;;46.45;25.17;;;2.40;99.90;;;;;;5094460;28;20482;-68
2021/12/07 04:40:33;;;;;;;49.65;25.08;;;2.40;99.90;;;;;;5093813;28;20047;-67
2021/12/07 04:42:59;;;;;;;53.53;26.70;;;2.40;99.90;;;;;;5093823;28;20046;-67
2021/12/07 04:45:47;;;;;;;57.25;26.80;;;2.40;99.90;;;;;;5095629;28;20031;-67
2021/12/07 04:48:47;;;;;;;56.30;28.05;;;2.40;99.90;;;;;;5094822;28;20031;-68
2021/12/07 04:59:17;;;;;;;64.10;30.65;;;2.50;99.90;;;;;;5094596;28;20028;-67
2021/12/07 05:01:44;;;;;;;65.90;30.13;;;2.50;99.90;;;;;;5093803;28;20381;-67
2021/12/07 05:04:15;;;;;;;65.25;30.38;;;2.50;99.90;;;;;;5093334;28;20054;-67
2021/12/07 05:06:47;;;;;;;64.88;30.50;;;2.50;99.90;;;;;;5093312;28;20028;-67
2021/12/07 05:09:42;;;;;;;68.07;31.20;;;2.50;99.90;;;;;;5077274;28;20062;-67
2021/12/07 05:14:31;;;;;;;67.60;31.00;;;2.50;99.90;;;;;;5094381;28;20052;-68
2021/12/07 05:17:16;;;;;;;66.45;31.17;;;2.50;99.90;;;;;;5093152;28;20024;-67
2021/12/07 05:39:05;;;;;;;80.45;35.30;;;2.60;99.90;;;;;;5092913;28;20119;-67
2021/12/07 05:41:31;;;;;;;77.82;34.00;;;2.60;99.90;;;;;;5094588;28;20026;-67
2021/12/07 05:43:56;;;;;;;86.25;34.60;;;2.60;99.90;;;;;;5094501;28;20103;-67
2021/12/07 05:46:22;;;;;;;79.95;34.28;;;2.60;99.90;;;;;;5094486;28;20461;-68
2021/12/07 05:48:48;;;;;;;83.93;34.15;;;2.70;99.90;;;;;;5075588;28;20465;-67
2021/12/07 05:51:13;;;;;;;85.13;34.38;;;2.70;99.90;;;;;;5093148;28;20024;-67
2021/12/07 05:53:39;;;;;;;90.53;36.00;;;2.70;99.90;;;;;;5092948;28;20115;-66
2021/12/07 05:56:05;;;;;;;92.18;34.72;;;2.70;99.90;;;;;;5076242;28;20107;-67
2021/12/07 05:58:30;;;;;;;92.72;36.13;;;2.70;99.90;;;;;;5092490;28;20383;-66
2021/12/07 06:00:57;;;;;;;89.97;36.03;;;2.80;99.90;;;;;;5092569;28;20028;-67
2021/12/07 06:03:25;;;;;;;91.78;37.95;;;2.80;99.90;;;;;;5092384;28;20465;-67
2021/12/07 06:05:53;;;;;;;90.25;37.00;;;2.80;99.90;;;;;;5075783;28;20032;-67
2021/12/07 06:08:18;;;;;;;89.70;37.45;;;2.80;99.90;;;;;;5092520;28;20059;-67
2021/12/07 06:10:44;;;;;;;99.95;40.63;;;2.80;99.90;;;;;;5092344;28;20028;-67
2021/12/07 06:13:10;;;;;;;101.65;43.95;;;2.80;99.90;;;;;;5075549;28;20431;-66
2021/12/07 06:15:38;;;;;;;94.80;39.58;;;2.80;99.90;;;;;;5092165;28;20050;-67
2021/12/07 06:18:04;;;;;;;101.68;42.13;;;2.70;99.90;;;;;;5092994;28;20016;-67
2021/12/07 06:20:30;;;;;;;97.72;39.85;;;2.80;99.90;;;;;;5092882;28;20063;-67
2021/12/07 06:22:56;;;;;;;96.45;41.00;;;2.80;99.90;;;;;;5092630;28;20052;-67
2021/12/07 06:25:21;;;;;;;100.68;38.50;;;2.80;99.90;;;;;;5092587;28;20077;-67
2021/12/07 06:27:47;;;;;;;99.93;40.63;;;2.80;99.90;;;;;;5092224;28;20074;-67
2021/12/07 06:30:14;;;;;;;89.75;37.28;;;2.80;99.90;;;;;;5093963;28;20028;-67
2021/12/07 06:32:40;;;;;;;88.85;35.95;;;2.80;99.90;;;;;;5075330;28;20439;-67
2021/12/07 06:35:07;;;;;;;127.53;57.88;;;2.80;99.90;;;;;;5075241;28;20024;-67
2021/12/07 06:37:33;;;;;;;131.18;54.88;;;2.70;99.90;;;;;;5093885;28;20449;-67
2021/12/07 06:39:59;;;;;;;137.38;59.72;;;2.70;99.90;;;;;;5093521;28;20031;-67
2021/12/07 06:42:25;;;;;;;131.43;56.95;;;2.60;99.90;;;;;;5075425;28;20020;-67
2021/12/07 06:44:52;;;;;;;116.03;46.40;;;2.60;99.90;;;;;;5094813;28;20024;-66
2021/12/07 06:47:17;;;;;;;113.15;47.10;;;2.60;99.90;;;;;;5092593;28;20024;-67
2021/12/07 06:49:43;;;;;;;101.78;40.65;;;2.60;99.90;;;;;;5093399;28;20035;-67
2021/12/07 06:52:09;;;;;;;108.55;41.97;;;2.50;99.90;;;;;;5093145;28;20024;-67
2021/12/07 06:54:36;;;;;;;116.57;46.25;;;2.50;99.90;;;;;;5091752;28;20110;-67
2021/12/07 06:57:02;;;;;;;122.38;47.33;;;2.40;99.90;;;;;;5092258;28;20016;-68
2021/12/07 06:59:28;;;;;;;109.60;45.90;;;2.50;99.90;;;;;;5093505;28;20473;-67
2021/12/07 07:01:53;;;;;;;109.63;39.90;;;2.40;99.90;;;;;;5077053;28;20038;-67
2021/12/07 07:04:19;;;;;;;103.32;39.17;;;2.50;99.90;;;;;;5095616;28;20020;-67
2021/12/07 07:06:45;;;;;;;112.53;40.75;;;2.50;99.90;;;;;;5097152;28;20032;-67
2021/12/07 07:09:13;;;;;;;116.78;39.60;;;2.60;99.90;;;;;;5095988;28;20123;-66
2021/12/07 07:11:39;;;;;;;93.38;37.70;;;2.60;99.90;;;;;;5095549;28;20129;-67
2021/12/07 07:14:05;;;;;;;95.60;38.63;;;2.70;99.90;;;;;;5095218;28;20040;-67
2021/12/07 07:16:31;;;;;;;94.75;37.30;;;2.70;99.90;;;;;;5095798;28;20091;-67
2021/12/07 07:18:57;;;;;;;96.03;36.03;;;2.60;99.90;;;;;;5095413;28;20020;-67
2021/12/07 07:21:23;;;;;;;95.35;35.65;;;2.60;99.90;;;;;;5078476;28;20169;-67
2021/12/07 07:23:49;;;;;;;99.93;35.92;;;2.70;99.90;;;;;;5078461;28;20024;-67
2021/12/07 07:26:15;;;;;;;91.22;37.63;;;2.70;99.90;;;;;;5078394;28;20024;-67
2021/12/07 07:28:41;;;;;;;108.22;36.97;;;2.70;99.90;;;;;;5078349;28;20464;-67
2021/12/07 07:31:10;;;;;;;101.25;38.30;;;2.70;99.90;;;;;;5095201;28;20035;-67
2021/12/07 07:33:36;;;;;;;92.28;35.70;;;2.70;99.90;;;;;;5096580;28;20024;-67
2021/12/07 07:36:02;;;;;;;108.05;37.63;;;2.80;99.90;;;;;;5096784;28;20024;-67
2021/12/07 07:38:28;;;;;;;161.77;63.88;;;2.80;99.90;;;;;;5095706;28;20124;-67
2021/12/07 07:40:53;;;;;;;124.88;47.38;;;2.80;99.90;;;;;;5094955;28;20041;-67
2021/12/07 07:43:19;;;;;;;117.38;47.55;;;2.80;99.90;;;;;;5094933;28;20078;-67
2021/12/07 07:45:47;;;;;;;174.63;71.60;;;2.90;99.90;;;;;;5077644;28;20392;-67
2021/12/07 07:48:14;;;;;;;135.43;53.72;;;2.80;99.90;;;;;;5076880;28;20032;-67
2021/12/07 07:50:39;;;;;;;165.95;62.25;;;2.90;99.90;;;;;;5102543;28;20028;-67
2021/12/07 07:53:06;;;;;;;128.95;54.47;;;3.00;99.90;;;;;;5094854;28;20469;-67
2021/12/07 07:55:32;;;;;;;117.15;46.00;;;3.00;99.90;;;;;;5106238;28;20035;-67
2021/12/07 07:57:58;;;;;;;116.32;54.40;;;3.10;99.90;;;;;;5110464;28;20016;-67
2021/12/07 08:00:24;;;;;;;117.95;45.95;;;3.10;99.90;;;;;;5081095;28;20370;-67
2021/12/07 08:02:49;;;;;;;101.82;40.00;;;3.10;99.90;;;;;;5072154;28;20165;-67
2021/12/07 08:05:16;;;;;;;103.70;40.88;;;3.20;99.90;;;;;;5111202;28;20028;-67
2021/12/07 08:07:47;;;;;;;109.78;41.08;;;3.20;99.90;;;;;;5070118;28;20030;-67
2021/12/07 08:10:14;;;;;;;98.95;40.45;;;3.30;99.90;;;;;;5087006;28;20066;-67
2021/12/07 08:12:40;;;;;;;113.22;41.92;;;3.30;99.90;;;;;;5077558;28;20538;-68
2021/12/07 08:15:06;;;;;;;100.85;40.90;;;3.50;99.90;;;;;;5104336;28;20043;-68
2021/12/07 08:17:32;;;;;;;105.70;40.38;;;3.60;99.90;;;;;;5085943;28;20027;-68
2021/12/07 08:19:58;;;;;;;103.57;40.72;;;3.60;99.90;;;;;;5088026;28;20024;-68
2021/12/07 08:22:23;;;;;;;99.93;39.30;;;3.60;99.90;;;;;;5095972;28;20099;-68
2021/12/07 08:24:49;;;;;;;85.18;38.20;;;3.60;99.90;;;;;;5095618;28;20032;-68
2021/12/07 08:27:16;;;;;;;91.15;40.30;;;3.70;99.90;;;;;;5105716;28;20034;-68
2021/12/07 08:29:41;;;;;;;99.40;40.00;;;3.70;99.90;;;;;;5095372;28;20027;-68
2021/12/07 08:32:07;;;;;;;91.43;38.22;;;3.80;99.90;;;;;;5097017;28;20080;-68
2021/12/07 08:34:33;;;;;;;84.18;38.28;;;3.80;99.90;;;;;;5068952;28;20033;-68
2021/12/07 08:36:58;;;;;;;94.15;37.33;;;3.90;99.90;;;;;;5111802;28;20031;-68
2021/12/07 08:39:24;;;;;;;102.65;38.38;;;3.90;99.90;;;;;;5107638;28;20034;-68
2021/12/07 08:41:49;;;;;;;97.85;37.33;;;4.00;99.90;;;;;;5114124;28;20368;-68
2021/12/07 08:44:15;;;;;;;82.90;35.10;;;4.10;99.90;;;;;;5099442;28;20048;-68
2021/12/07 08:46:40;;;;;;;80.03;33.83;;;4.20;99.90;;;;;;5092925;28;20020;-66
2021/12/07 08:49:07;;;;;;;84.18;33.85;;;4.30;99.90;;;;;;5111883;28;20396;-68
2021/12/07 08:51:32;;;;;;;80.60;31.08;;;4.50;99.90;;;;;;5107930;28;20084;-68
2021/12/07 08:54:19;;;;;;;62.65;27.55;;;4.80;99.90;;;;;;5089427;28;20024;-67
2021/12/07 08:59:45;;;;;;;51.67;24.73;;;5.60;99.90;;;;;;5098070;28;20495;-68
2021/12/07 09:02:15;;;;;;;44.53;23.52;;;5.90;99.90;;;;;;5095805;28;20107;-68
2021/12/07 09:04:41;;;;;;;56.10;23.48;;;6.00;99.90;;;;;;5106560;28;20166;-68
2021/12/07 09:07:07;;;;;;;60.58;23.92;;;5.80;99.90;;;;;;5090309;28;20388;-68
2021/12/07 09:09:34;;;;;;;62.45;23.70;;;5.60;99.90;;;;;;5087268;28;20052;-68
2021/12/07 09:11:59;;;;;;;54.75;24.30;;;5.40;99.90;;;;;;5106795;28;20032;-68
2021/12/07 09:14:27;;;;;;;50.65;24.27;;;5.50;99.90;;;;;;5097220;28;20081;-68
2021/12/07 09:16:53;;;;;;;61.78;23.77;;;5.40;99.90;;;;;;5105095;28;20027;-67
2021/12/07 09:19:20;;;;;;;57.35;24.70;;;5.40;99.90;;;;;;5073634;28;20039;-68
2021/12/07 09:21:45;;;;;;;59.72;25.40;;;5.10;99.90;;;;;;5093900;28;20372;-68
2021/12/07 09:24:11;;;;;;;58.20;25.77;;;5.00;99.90;;;;;;5098938;28;20028;-67
2021/12/07 09:26:37;;;;;;;59.95;26.95;;;5.00;99.90;;;;;;5075564;28;20044;-68
2021/12/07 09:29:04;;;;;;;59.88;27.75;;;4.90;99.90;;;;;;5093252;28;20051;-68
2021/12/07 09:31:30;;;;;;;61.03;27.17;;;4.90;99.90;;;;;;5075607;28;20035;-68
2021/12/07 09:33:56;;;;;;;59.58;25.98;;;4.80;99.90;;;;;;5093925;28;20028;-68
2021/12/07 09:36:22;;;;;;;60.53;26.85;;;4.80;99.90;;;;;;5077187;28;20034;-68
2021/12/07 09:38:48;;;;;;;71.55;26.85;;;4.80;99.90;;;;;;5098196;28;20073;-68
2021/12/07 09:41:15;;;;;;;59.40;28.20;;;4.80;99.90;;;;;;5107763;28;20484;-68
2021/12/07 09:43:41;;;;;;;68.57;28.52;;;4.80;99.90;;;;;;5093650;28;20020;-67
2021/12/07 09:46:09;;;;;;;65.43;28.42;;;4.90;99.90;;;;;;5093903;28;20433;-68
2021/12/07 09:48:35;;;;;;;63.63;28.98;;;4.90;99.90;;;;;;5094250;28;20035;-67
2021/12/07 09:51:02;;;;;;;66.03;28.05;;;5.00;99.90;;;;;;5092582;28;20024;-67
2021/12/07 09:53:29;;;;;;;62.50;28.70;;;5.00;99.90;;;;;;5091904;28;20032;-67
2021/12/07 09:55:56;;;;;;;75.20;31.55;;;5.00;99.90;;;;;;5075570;28;20024;-68
2021/12/07 09:58:22;;;;;;;68.97;29.80;;;5.00;99.90;;;;;;5095076;28;20027;-68
2021/12/07 10:00:49;;;;;;;64.32;31.67;;;4.90;99.90;;;;;;5075967;28;20020;-69
2021/12/07 10:03:16;;;;;;;64.00;30.20;;;4.90;99.90;;;;;;5093037;28;20135;-68
2021/12/07 10:05:42;;;;;;;73.05;30.13;;;4.90;99.90;;;;;;5092152;28;20077;-68
2021/12/07 10:08:11;;;;;;;68.32;29.92;;;5.00;99.90;;;;;;5083302;28;20024;-68
2021/12/07 10:10:42;;;;;;;69.07;30.85;;;5.00;99.90;;;;;;5092066;28;20020;-68
2021/12/07 10:13:10;;;;;;;62.67;29.35;;;4.80;99.90;;;;;;5099066;28;20043;-67
2021/12/07 10:15:36;;;;;;;71.15;31.80;;;4.70;99.90;;;;;;5071409;28;20051;-67
2021/12/07 10:18:12;;;;;;;66.57;29.17;;;4.60;99.90;;;;;;5088641;28;20067;-68
2021/12/07 10:20:43;;;;;;;71.40;29.67;;;4.70;99.90;;;;;;5089899;28;20027;-68
2021/12/07 10:25:59;;;;;;;69.65;29.88;;;4.70;99.90;;;;;;5071638;28;20383;-67
2021/12/07 10:28:29;;;;;;;68.22;29.50;;;4.70;99.90;;;;;;5069829;28;20033;-68
2021/12/07 10:31:00;;;;;;;60.40;27.15;;;4.80;99.90;;;;;;5069039;28;20027;-68
2021/12/07 10:33:32;;;;;;;64.93;28.75;;;5.00;99.90;;;;;;5051304;28;20052;-68
2021/12/07 10:36:09;;;;;;;61.58;25.23;;;5.40;99.90;;;;;;5069305;28;20032;-68
2021/12/07 10:38:37;;;;;;;50.08;23.73;;;5.60;99.90;;;;;;5069586;28;20131;-67
2021/12/07 10:41:07;;;;;;;53.05;23.42;;;5.40;99.90;;;;;;5071455;28;20021;-67
2021/12/07 10:43:55;;;;;;;56.33;22.33;;;5.40;99.90;;;;;;5065729;28;20382;-68
2021/12/07 10:46:26;;;;;;;54.05;22.65;;;5.30;99.90;;;;;;5070414;28;20138;-68
2021/12/07 10:49:09;;;;;;;55.28;22.75;;;5.30;99.90;;;;;;5069090;28;20029;-68
2021/12/07 10:51:35;;;;;;;54.47;23.75;;;5.20;99.90;;;;;;5070491;28;20029;-68
2021/12/07 10:54:01;;;;;;;52.88;22.20;;;5.20;99.90;;;;;;5068958;28;20032;-67
2021/12/07 10:56:38;;;;;;;45.88;21.75;;;5.20;99.90;;;;;;5068945;28;20040;-68
2021/12/07 10:59:06;;;;;;;48.95;22.27;;;5.20;99.90;;;;;;5053907;28;20478;-68
2021/12/07 11:01:39;;;;;;;48.58;21.75;;;5.30;99.90;;;;;;5085546;28;20036;-67
2021/12/07 11:04:28;;;;;;;48.92;21.13;;;5.30;99.90;;;;;;5073792;28;20086;-68
2021/12/07 11:07:16;;;;;;;43.15;19.60;;;5.50;99.90;;;;;;5069976;28;20021;-67
2021/12/07 11:09:58;;;;;;;34.83;16.75;;;5.40;99.90;;;;;;5069388;28;20056;-67
2021/12/07 11:12:25;;;;;;;47.17;18.92;;;5.30;99.90;;;;;;5083827;28;20032;-67
2021/12/07 11:14:59;;;;;;;37.03;17.58;;;5.40;99.90;;;;;;5070116;28;20530;-67
2021/12/07 11:17:34;;;;;;;39.83;17.17;;;5.50;99.90;;;;;;5069760;28;20551;-68
2021/12/07 11:20:03;;;;;;;43.42;17.20;;;5.50;99.90;;;;;;5052914;28;20028;-68
2021/12/07 11:22:32;;;;;;;37.95;16.20;;;5.60;99.90;;;;;;5069639;28;20106;-68
2021/12/07 11:25:03;;;;;;;32.10;17.02;;;5.60;99.90;;;;;;5068087;28;20051;-68
2021/12/07 11:30:21;;;;;;;38.72;17.58;;;5.60;99.90;;;;;;5068811;28;20017;-68
2021/12/07 11:32:51;;;;;;;40.67;18.25;;;5.50;99.90;;;;;;5069283;28;20025;-68
2021/12/07 11:35:26;;;;;;;32.60;17.00;;;5.60;99.90;;;;;;5070008;28;20099;-68
2021/12/07 11:37:53;;;;;;;42.15;15.75;;;5.80;99.90;;;;;;5052508;28;20382;-68
2021/12/07 11:40:24;;;;;;;33.75;15.95;;;5.80;99.90;;;;;;5050555;28;20108;-68
2021/12/07 11:42:50;;;;;;;41.88;15.13;;;6.00;99.90;;;;;;5051884;28;20385;-68
2021/12/07 11:45:21;;;;;;;36.53;14.50;;;6.00;99.90;;;;;;5034990;28;20108;-68
2021/12/07 11:47:51;;;;;;;34.58;14.35;;;6.20;99.90;;;;;;5044254;28;20033;-68
2021/12/07 11:50:40;;;;;;;27.75;13.88;;;6.20;99.90;;;;;;5057501;28;20117;-68
2021/12/07 11:53:11;;;;;;;32.15;14.68;;;6.10;99.90;;;;;;5037630;28;20021;-68
2021/12/07 11:55:39;;;;;;;29.98;12.82;;;6.10;99.90;;;;;;5055922;28;20024;-68
2021/12/07 11:58:07;;;;;;;31.02;11.93;;;5.90;99.90;;;;;;5034106;28;20037;-68
2021/12/07 12:00:37;;;;;;;33.70;13.95;;;5.70;99.90;;;;;;5032493;28;20021;-68
2021/12/07 12:03:07;;;;;;;37.08;12.70;;;5.60;99.90;;;;;;5047380;28;20502;-68
2021/12/07 12:05:34;;;;;;;34.95;13.02;;;5.70;99.90;;;;;;5044084;28;20117;-68
2021/12/07 12:08:01;;;;;;;30.85;13.45;;;5.70;99.90;;;;;;5059678;28;20058;-68
2021/12/07 12:10:29;;;;;;;28.58;12.85;;;5.80;99.90;;;;;;5029772;28;20027;-68
2021/12/07 12:13:05;;;;;;;37.15;14.23;;;5.90;99.90;;;;;;5071545;28;20527;-68
2021/12/07 12:15:55;;;;;;;33.22;13.20;;;6.00;99.90;;;;;;5034833;28;20116;-68
2021/12/07 12:18:47;;;;;;;29.13;13.90;;;6.20;99.90;;;;;;5043270;28;20039;-68
2021/12/07 12:21:47;;;;;;;39.45;14.20;;;6.30;99.90;;;;;;5047466;28;20032;-68
2021/12/07 12:24:52;;;;;;;27.20;11.52;;;6.60;99.90;;;;;;5049220;28;20056;-68
2021/12/07 12:27:22;;;;;;;31.27;12.05;;;6.60;99.90;;;;;;5035319;28;20032;-68
2021/12/07 12:29:51;;;;;;;25.98;12.00;;;6.40;99.90;;;;;;5062821;28;20462;-68
2021/12/07 12:32:28;;;;;;;30.85;12.52;;;6.30;99.90;;;;;;5055727;28;20522;-68
2021/12/07 12:34:55;;;;;;;28.85;12.70;;;6.30;99.90;;;;;;5037699;28;20386;-68
2021/12/07 12:37:24;;;;;;;31.98;14.07;;;6.40;99.90;;;;;;5037277;28;20040;-68
2021/12/07 12:40:09;;;;;;;25.20;12.68;;;6.60;99.90;;;;;;5054021;28;20033;-68
2021/12/07 12:42:46;;;;;;;24.67;12.40;;;6.70;99.90;;;;;;5055171;28;20026;-68
2021/12/07 12:45:24;;;;;;;28.98;11.80;;;6.70;99.90;;;;;;5074212;28;20024;-68
2021/12/07 12:48:00;;;;;;;26.08;11.52;;;6.60;99.90;;;;;;5047148;28;20025;-68
2021/12/07 12:50:32;;;;;;;29.50;12.15;;;6.60;99.90;;;;;;5052803;28;20094;-68
2021/12/07 12:53:07;;;;;;;31.73;13.13;;;6.60;99.90;;;;;;5037432;28;20382;-68
2021/12/07 12:55:46;;;;;;;34.42;14.13;;;6.50;99.90;;;;;;5054849;28;20068;-68
2021/12/07 12:58:36;;;;;;;30.95;14.18;;;6.50;99.90;;;;;;5057996;28;20397;-68
2021/12/07 13:07:23;;;;;;;32.60;15.27;;;6.00;99.90;;;;;;5071095;28;20407;-67
2021/12/07 13:09:45;;;;;;;42.72;15.48;;;6.00;99.90;;;;;;5070532;28;20056;-67
2021/12/07 13:15:07;;;;;;;39.25;14.32;;;5.90;99.90;;;;;;5071039;28;20379;-67
2021/12/07 13:17:48;;;;;;;38.00;14.75;;;5.90;99.90;;;;;;5069365;28;20099;-67
2021/12/07 13:20:18;;;;;;;35.75;13.73;;;5.90;99.90;;;;;;5069298;28;20031;-67
2021/12/07 13:22:51;;;;;;;34.08;13.77;;;5.90;99.90;;;;;;5053160;28;20417;-67
2021/12/07 13:25:38;;;;;;;31.92;12.60;;;5.90;99.90;;;;;;5053476;28;20370;-67
2021/12/07 13:28:11;;;;;;;34.03;13.35;;;5.90;99.90;;;;;;5070992;28;20385;-67
2021/12/07 13:33:43;;;;;;;32.65;12.48;;;5.90;99.90;;;;;;5071571;28;20391;-68
2021/12/07 13:36:32;;;;;;;23.67;9.82;;;5.80;99.90;;;;;;5087319;28;20363;-68
2021/12/07 13:39:21;;;;;;;29.02;10.52;;;5.80;99.90;;;;;;5080166;28;20491;-67
2021/12/07 13:42:08;;;;;;;22.90;9.75;;;5.90;99.90;;;;;;5050593;28;20029;-68
2021/12/07 13:47:16;;;;;;;23.48;8.75;;;5.90;99.90;;;;;;5073291;28;20438;-67
2021/12/07 13:49:46;;;;;;;27.80;9.30;;;5.80;99.90;;;;;;5056698;28;20025;-67
2021/12/07 13:52:16;;;;;;;21.02;8.20;;;5.70;99.90;;;;;;5049758;28;20100;-67
2021/12/07 13:54:45;;;;;;;24.75;9.35;;;5.60;99.90;;;;;;5053905;28;20060;-67
2021/12/07 13:57:14;;;;;;;24.65;9.40;;;5.60;99.90;;;;;;5049716;28;20100;-67
2021/12/07 13:59:40;;;;;;;19.60;8.82;;;5.50;99.90;;;;;;5044845;28;20366;-67
2021/12/07 14:02:05;;;;;;;22.83;9.70;;;5.50;99.90;;;;;;5070213;28;20036;-67
2021/12/07 14:04:31;;;;;;;23.27;9.82;;;5.40;99.90;;;;;;5069010;28;20024;-67
2021/12/07 14:06:57;;;;;;;27.40;10.55;;;5.40;99.90;;;;;;5055111;28;20364;-68
2021/12/07 14:09:23;;;;;;;25.52;9.48;;;5.30;99.90;;;;;;5066090;28;20021;-68
2021/12/07 14:11:53;;;;;;;24.90;9.32;;;5.20;99.90;;;;;;5082103;28;20542;-67
2021/12/07 14:14:20;;;;;;;19.30;9.57;;;5.20;99.90;;;;;;5032417;28;20063;-67
2021/12/07 14:16:46;;;;;;;23.15;9.57;;;5.10;99.90;;;;;;5048898;28;20163;-67
2021/12/07 14:19:12;;;;;;;24.92;8.73;;;5.00;99.90;;;;;;5032525;28;20080;-67
2021/12/07 14:21:38;;;;;;;22.85;7.70;;;5.00;99.90;;;;;;5049153;28;20466;-67
2021/12/07 14:24:08;;;;;;;20.70;8.70;;;4.90;99.90;;;;;;5050451;28;20045;-67
2021/12/07 14:26:37;;;;;;;19.70;8.75;;;4.80;99.90;;;;;;5048765;28;20100;-67
2021/12/07 14:29:08;;;;;;;25.88;8.50;;;4.70;99.90;;;;;;5050331;28;20454;-67
2021/12/07 14:31:38;;;;;;;20.58;8.23;;;4.70;99.90;;;;;;5049047;28;20036;-67
2021/12/07 14:34:06;;;;;;;22.02;8.40;;;4.60;99.90;;;;;;5048588;28;20030;-67
2021/12/07 14:36:38;;;;;;;18.95;7.40;;;4.60;99.90;;;;;;5048880;28;20037;-67